sensor_id;sensor_type;location;lat;lon;timestamp;pressure;altitude;pressure_sealevel;temperature;humidity
39141;BME280;24875;48.436;10.298;2022-07-29T00:02:18;96189.03;;;20.88;100.00
39141;BME280;24875;48.436;10.298;2022-07-29T00:04:45;96186.78;;;20.97;100.00
39141;BME280;24875;48.436;10.298;2022-07-29T00:07:12;96177.69;;;20.98;100.00
39141;BME280;24875;48.436;10.298;2022-07-29T00:09:39;96173.41;;;21.13;100.00
39141;BME280;24875;48.436;10.298;2022-07-29T00:12:05;96163.72;;;21.29;100.00
39141;BME280;24875;48.436;10.298;2022-07-29T00:14:32;96170.03;;;20.90;100.00
39141;BME280;24875;48.436;10.298;2022-07-29T00:16:59;96156.16;;;20.77;100.00
39141;BME280;24875;48.436;10.298;2022-07-29T00:19:25;96154.31;;;21.10;100.00
39141;BME280;24875;48.436;10.298;2022-07-29T00:21:53;96162.34;;;21.10;100.00
39141;BME280;24875;48.436;10.298;2022-07-29T00:24:20;96149.03;;;21.15;100.00
39141;BME280;24875;48.436;10.298;2022-07-29T00:26:46;96147.06;;;21.10;100.00
39141;BME280;24875;48.436;10.298;2022-07-29T00:29:13;96145.75;;;21.13;100.00
39141;BME280;24875;48.436;10.298;2022-07-29T00:31:39;96149.28;;;21.13;100.00
39141;BME280;24875;48.436;10.298;2022-07-29T00:34:06;96142.53;;;21.11;100.00
39141;BME280;24875;48.436;10.298;2022-07-29T00:36:53;96124.75;;;21.21;100.00
39141;BME280;24875;48.436;10.298;2022-07-29T00:39:19;96124.19;;;21.03;100.00
39141;BME280;24875;48.436;10.298;2022-07-29T00:41:45;96122.47;;;20.97;100.00
39141;BME280;24875;48.436;10.298;2022-07-29T00:44:12;96121.13;;;20.67;100.00
39141;BME280;24875;48.436;10.298;2022-07-29T00:46:38;96111.78;;;20.69;100.00
39141;BME280;24875;48.436;10.298;2022-07-29T00:49:05;96110.03;;;20.75;100.00
39141;BME280;24875;48.436;10.298;2022-07-29T00:51:32;96102.63;;;20.65;100.00
39141;BME280;24875;48.436;10.298;2022-07-29T00:54:02;96108.75;;;20.77;100.00
39141;BME280;24875;48.436;10.298;2022-07-29T00:56:30;96103.56;;;20.59;100.00
39141;BME280;24875;48.436;10.298;2022-07-29T00:58:57;96114.63;;;20.63;100.00
39141;BME280;24875;48.436;10.298;2022-07-29T01:01:24;96118.59;;;20.60;100.00
39141;BME280;24875;48.436;10.298;2022-07-29T01:03:51;96106.06;;;20.33;100.00
39141;BME280;24875;48.436;10.298;2022-07-29T01:06:19;96107.09;;;20.60;100.00
39141;BME280;24875;48.436;10.298;2022-07-29T01:08:47;96104.22;;;20.50;100.00
39141;BME280;24875;48.436;10.298;2022-07-29T01:11:16;96090.03;;;20.66;100.00
39141;BME280;24875;48.436;10.298;2022-07-29T01:13:43;96095.69;;;20.53;100.00
39141;BME280;24875;48.436;10.298;2022-07-29T01:16:15;96099.94;;;20.65;100.00
39141;BME280;24875;48.436;10.298;2022-07-29T01:18:46;96098.88;;;20.50;100.00
39141;BME280;24875;48.436;10.298;2022-07-29T01:21:27;96093.69;;;20.60;100.00
39141;BME280;24875;48.436;10.298;2022-07-29T01:26:58;96093.44;;;20.45;100.00
39141;BME280;24875;48.436;10.298;2022-07-29T01:29:28;96100.00;;;20.54;100.00
39141;BME280;24875;48.436;10.298;2022-07-29T01:32:00;96092.25;;;20.69;100.00
39141;BME280;24875;48.436;10.298;2022-07-29T01:34:32;96088.75;;;20.68;100.00
39141;BME280;24875;48.436;10.298;2022-07-29T01:37:06;96088.28;;;20.71;100.00
39141;BME280;24875;48.436;10.298;2022-07-29T01:39:36;96076.19;;;20.69;100.00
39141;BME280;24875;48.436;10.298;2022-07-29T01:42:08;96082.31;;;20.53;100.00
39141;BME280;24875;48.436;10.298;2022-07-29T01:44:41;96072.19;;;20.55;100.00
39141;BME280;24875;48.436;10.298;2022-07-29T01:47:15;96070.56;;;20.54;100.00
39141;BME280;24875;48.436;10.298;2022-07-29T01:49:46;96063.75;;;20.63;100.00
39141;BME280;24875;48.436;10.298;2022-07-29T01:52:20;96062.78;;;20.69;100.00
39141;BME280;24875;48.436;10.298;2022-07-29T01:54:52;96057.13;;;20.82;100.00
39141;BME280;24875;48.436;10.298;2022-07-29T01:57:23;96065.09;;;20.77;100.00
39141;BME280;24875;48.436;10.298;2022-07-29T01:59:53;96060.06;;;20.80;100.00
39141;BME280;24875;48.436;10.298;2022-07-29T02:02:21;96054.19;;;20.67;100.00
39141;BME280;24875;48.436;10.298;2022-07-29T02:04:49;96047.50;;;20.53;100.00
39141;BME280;24875;48.436;10.298;2022-07-29T02:07:19;96046.56;;;20.59;100.00
39141;BME280;24875;48.436;10.298;2022-07-29T02:09:49;96049.94;;;20.71;100.00
39141;BME280;24875;48.436;10.298;2022-07-29T02:12:18;96043.13;;;20.63;100.00
39141;BME280;24875;48.436;10.298;2022-07-29T02:14:47;96053.31;;;20.78;100.00
39141;BME280;24875;48.436;10.298;2022-07-29T02:17:21;96049.88;;;20.66;100.00
39141;BME280;24875;48.436;10.298;2022-07-29T02:19:48;96058.06;;;20.59;100.00
39141;BME280;24875;48.436;10.298;2022-07-29T02:22:16;96050.78;;;20.71;100.00
39141;BME280;24875;48.436;10.298;2022-07-29T02:24:44;96057.09;;;20.65;100.00
39141;BME280;24875;48.436;10.298;2022-07-29T02:27:11;96049.78;;;20.61;100.00
39141;BME280;24875;48.436;10.298;2022-07-29T02:29:39;96048.97;;;20.60;100.00
39141;BME280;24875;48.436;10.298;2022-07-29T02:32:07;96051.59;;;20.72;100.00
39141;BME280;24875;48.436;10.298;2022-07-29T02:34:38;96042.69;;;20.83;100.00
39141;BME280;24875;48.436;10.298;2022-07-29T02:37:05;96058.81;;;20.71;100.00
39141;BME280;24875;48.436;10.298;2022-07-29T02:39:32;96046.53;;;20.42;100.00
39141;BME280;24875;48.436;10.298;2022-07-29T02:42:15;96051.59;;;20.72;100.00
39141;BME280;24875;48.436;10.298;2022-07-29T02:44:42;96039.03;;;20.72;100.00
39141;BME280;24875;48.436;10.298;2022-07-29T02:47:13;96047.97;;;20.78;100.00
39141;BME280;24875;48.436;10.298;2022-07-29T02:49:48;96050.78;;;20.71;100.00
39141;BME280;24875;48.436;10.298;2022-07-29T02:52:20;96049.22;;;20.42;100.00
39141;BME280;24875;48.436;10.298;2022-07-29T02:54:54;96043.13;;;20.63;100.00
39141;BME280;24875;48.436;10.298;2022-07-29T02:57:28;96048.03;;;20.66;100.00
39141;BME280;24875;48.436;10.298;2022-07-29T02:59:59;96046.63;;;20.47;100.00
39141;BME280;24875;48.436;10.298;2022-07-29T03:02:33;96043.69;;;20.49;100.00
39141;BME280;24875;48.436;10.298;2022-07-29T03:05:02;96048.56;;;20.52;100.00
39141;BME280;24875;48.436;10.298;2022-07-29T03:07:29;96037.38;;;20.38;100.00
39141;BME280;24875;48.436;10.298;2022-07-29T03:09:56;96038.28;;;20.00;100.00
39141;BME280;24875;48.436;10.298;2022-07-29T03:12:23;96042.91;;;20.04;100.00
39141;BME280;24875;48.436;10.298;2022-07-29T03:14:51;96041.84;;;20.33;100.00
39141;BME280;24875;48.436;10.298;2022-07-29T03:17:19;96043.44;;;20.34;100.00
39141;BME280;24875;48.436;10.298;2022-07-29T03:19:46;96045.22;;;20.28;100.00
39141;BME280;24875;48.436;10.298;2022-07-29T03:22:14;96048.16;;;20.27;100.00
39141;BME280;24875;48.436;10.298;2022-07-29T03:24:40;96052.72;;;19.87;100.00
39141;BME280;24875;48.436;10.298;2022-07-29T03:27:07;96057.22;;;19.70;100.00
39141;BME280;24875;48.436;10.298;2022-07-29T03:29:33;96059.03;;;19.70;100.00
39141;BME280;24875;48.436;10.298;2022-07-29T03:32:01;96059.75;;;20.05;100.00
39141;BME280;24875;48.436;10.298;2022-07-29T03:34:28;96051.78;;;19.93;100.00
39141;BME280;24875;48.436;10.298;2022-07-29T03:36:55;96049.00;;;19.88;100.00
39141;BME280;24875;48.436;10.298;2022-07-29T03:39:25;96058.50;;;19.96;100.00
39141;BME280;24875;48.436;10.298;2022-07-29T03:41:56;96056.34;;;19.81;100.00
39141;BME280;24875;48.436;10.298;2022-07-29T03:44:25;96059.81;;;19.93;100.00
39141;BME280;24875;48.436;10.298;2022-07-29T03:46:55;96059.91;;;19.98;100.00
39141;BME280;24875;48.436;10.298;2022-07-29T03:49:23;96062.81;;;19.97;100.00
39141;BME280;24875;48.436;10.298;2022-07-29T03:51:51;96061.13;;;19.91;100.00
39141;BME280;24875;48.436;10.298;2022-07-29T03:54:18;96070.28;;;19.83;100.00
39141;BME280;24875;48.436;10.298;2022-07-29T03:56:46;96055.53;;;19.92;100.00
39141;BME280;24875;48.436;10.298;2022-07-29T03:59:15;96062.22;;;20.06;100.00
39141;BME280;24875;48.436;10.298;2022-07-29T04:01:45;96053.41;;;19.94;100.00
39141;BME280;24875;48.436;10.298;2022-07-29T04:04:12;96061.44;;;19.94;100.00
39141;BME280;24875;48.436;10.298;2022-07-29T04:06:39;96064.94;;;19.95;98.33
39141;BME280;24875;48.436;10.298;2022-07-29T04:09:06;96061.97;;;19.68;100.00
39141;BME280;24875;48.436;10.298;2022-07-29T04:11:33;96061.06;;;19.63;100.00
39141;BME280;24875;48.436;10.298;2022-07-29T04:14:01;96058.81;;;19.71;100.00
39141;BME280;24875;48.436;10.298;2022-07-29T04:16:28;96060.38;;;19.45;100.00
39141;BME280;24875;48.436;10.298;2022-07-29T04:18:54;96067.84;;;19.43;100.00
39141;BME280;24875;48.436;10.298;2022-07-29T04:21:21;96067.19;;;19.63;100.00
39141;BME280;24875;48.436;10.298;2022-07-29T04:23:47;96062.78;;;19.57;99.83
39141;BME280;24875;48.436;10.298;2022-07-29T04:26:15;96081.50;;;19.57;100.00
39141;BME280;24875;48.436;10.298;2022-07-29T04:28:41;96080.81;;;19.62;100.00
39141;BME280;24875;48.436;10.298;2022-07-29T04:31:09;96086.06;;;19.46;100.00
39141;BME280;24875;48.436;10.298;2022-07-29T04:33:37;96092.34;;;19.40;100.00
39141;BME280;24875;48.436;10.298;2022-07-29T04:36:04;96087.50;;;19.25;100.00
39141;BME280;24875;48.436;10.298;2022-07-29T04:38:30;96100.28;;;19.12;100.00
39141;BME280;24875;48.436;10.298;2022-07-29T04:40:57;96104.44;;;19.08;100.00
39141;BME280;24875;48.436;10.298;2022-07-29T04:43:23;96104.31;;;19.03;100.00
39141;BME280;24875;48.436;10.298;2022-07-29T04:45:50;96105.97;;;19.15;100.00
39141;BME280;24875;48.436;10.298;2022-07-29T04:48:17;96101.56;;;19.32;100.00
39141;BME280;24875;48.436;10.298;2022-07-29T04:50:44;96100.38;;;19.40;100.00
39141;BME280;24875;48.436;10.298;2022-07-29T04:53:10;96102.34;;;19.33;100.00
39141;BME280;24875;48.436;10.298;2022-07-29T04:55:37;96110.63;;;19.31;100.00
39141;BME280;24875;48.436;10.298;2022-07-29T04:58:03;96109.78;;;19.31;100.00
39141;BME280;24875;48.436;10.298;2022-07-29T05:00:30;96114.81;;;19.27;100.00
39141;BME280;24875;48.436;10.298;2022-07-29T05:02:56;96113.72;;;19.40;100.00
39141;BME280;24875;48.436;10.298;2022-07-29T05:05:24;96113.72;;;19.51;100.00
39141;BME280;24875;48.436;10.298;2022-07-29T05:07:50;96118.50;;;19.38;100.00
39141;BME280;24875;48.436;10.298;2022-07-29T05:10:17;96118.88;;;19.41;100.00
39141;BME280;24875;48.436;10.298;2022-07-29T05:12:43;96120.56;;;19.58;100.00
39141;BME280;24875;48.436;10.298;2022-07-29T05:15:10;96106.38;;;19.69;100.00
39141;BME280;24875;48.436;10.298;2022-07-29T05:17:36;96120.09;;;19.73;100.00
39141;BME280;24875;48.436;10.298;2022-07-29T05:20:04;96116.31;;;19.85;100.00
39141;BME280;24875;48.436;10.298;2022-07-29T05:22:32;96118.16;;;20.08;100.00
39141;BME280;24875;48.436;10.298;2022-07-29T05:24:58;96113.88;;;19.95;100.00
39141;BME280;24875;48.436;10.298;2022-07-29T05:27:24;96118.66;;;19.93;100.00
39141;BME280;24875;48.436;10.298;2022-07-29T05:29:51;96122.47;;;20.09;100.00
39141;BME280;24875;48.436;10.298;2022-07-29T05:32:17;96129.47;;;20.26;100.00
39141;BME280;24875;48.436;10.298;2022-07-29T05:34:44;96141.63;;;20.45;100.00
39141;BME280;24875;48.436;10.298;2022-07-29T05:37:10;96140.28;;;20.31;100.00
39141;BME280;24875;48.436;10.298;2022-07-29T05:39:39;96136.81;;;20.75;100.00
39141;BME280;24875;48.436;10.298;2022-07-29T05:42:08;96136.09;;;20.79;100.00
39141;BME280;24875;48.436;10.298;2022-07-29T05:44:36;96135.53;;;20.93;100.00
39141;BME280;24875;48.436;10.298;2022-07-29T05:47:02;96138.13;;;20.88;100.00
39141;BME280;24875;48.436;10.298;2022-07-29T05:49:29;96134.91;;;21.03;100.00
39141;BME280;24875;48.436;10.298;2022-07-29T05:51:56;96138.31;;;20.98;100.00
39141;BME280;24875;48.436;10.298;2022-07-29T05:54:23;96129.22;;;21.32;100.00
39141;BME280;24875;48.436;10.298;2022-07-29T05:56:51;96139.09;;;21.64;100.00
39141;BME280;24875;48.436;10.298;2022-07-29T05:59:17;96137.75;;;21.83;100.00
39141;BME280;24875;48.436;10.298;2022-07-29T06:01:44;96144.41;;;21.81;100.00
39141;BME280;24875;48.436;10.298;2022-07-29T06:04:10;96136.63;;;21.79;98.10
39141;BME280;24875;48.436;10.298;2022-07-29T06:06:37;96139.81;;;21.60;96.82
39141;BME280;24875;48.436;10.298;2022-07-29T06:09:03;96141.22;;;21.84;96.98
39141;BME280;24875;48.436;10.298;2022-07-29T06:11:30;96140.16;;;21.85;98.28
39141;BME280;24875;48.436;10.298;2022-07-29T06:13:57;96140.50;;;21.88;90.59
39141;BME280;24875;48.436;10.298;2022-07-29T06:16:24;96144.56;;;21.91;92.91
39141;BME280;24875;48.436;10.298;2022-07-29T06:18:50;96149.41;;;21.94;93.38
39141;BME280;24875;48.436;10.298;2022-07-29T06:21:17;96151.28;;;22.14;94.68
39141;BME280;24875;48.436;10.298;2022-07-29T06:23:44;96156.47;;;22.00;93.75
39141;BME280;24875;48.436;10.298;2022-07-29T06:26:10;96156.59;;;21.88;94.31
39141;BME280;24875;48.436;10.298;2022-07-29T06:28:37;96152.69;;;22.01;94.77
39141;BME280;24875;48.436;10.298;2022-07-29T06:31:05;96153.88;;;22.09;94.61
39141;BME280;24875;48.436;10.298;2022-07-29T06:33:31;96154.66;;;22.05;91.89
39141;BME280;24875;48.436;10.298;2022-07-29T06:35:58;96160.34;;;22.08;93.19
39141;BME280;24875;48.436;10.298;2022-07-29T06:38:25;96160.44;;;22.18;91.03
39141;BME280;24875;48.436;10.298;2022-07-29T06:40:51;96150.84;;;22.22;91.21
39141;BME280;24875;48.436;10.298;2022-07-29T06:43:30;96161.81;;;22.21;96.16
39141;BME280;24875;48.436;10.298;2022-07-29T06:46:03;96159.94;;;21.79;91.52
39141;BME280;24875;48.436;10.298;2022-07-29T06:48:32;96168.50;;;22.18;94.46
39141;BME280;24875;48.436;10.298;2022-07-29T06:50:59;96167.88;;;22.11;94.10
39141;BME280;24875;48.436;10.298;2022-07-29T06:53:26;96165.97;;;22.28;92.91
39141;BME280;24875;48.436;10.298;2022-07-29T06:55:52;96172.81;;;22.19;93.12
39141;BME280;24875;48.436;10.298;2022-07-29T06:58:19;96170.84;;;22.31;93.02
39141;BME280;24875;48.436;10.298;2022-07-29T07:00:46;96165.22;;;22.33;86.29
39141;BME280;24875;48.436;10.298;2022-07-29T07:03:13;96173.38;;;22.43;90.03
39141;BME280;24875;48.436;10.298;2022-07-29T07:05:40;96171.72;;;22.63;89.50
39141;BME280;24875;48.436;10.298;2022-07-29T07:08:07;96174.38;;;22.58;88.02
39141;BME280;24875;48.436;10.298;2022-07-29T07:10:34;96177.28;;;22.52;91.35
39141;BME280;24875;48.436;10.298;2022-07-29T07:13:01;96176.91;;;22.43;87.36
39141;BME280;24875;48.436;10.298;2022-07-29T07:15:27;96177.31;;;22.57;91.69
39141;BME280;24875;48.436;10.298;2022-07-29T07:17:54;96179.34;;;22.07;85.68
39141;BME280;24875;48.436;10.298;2022-07-29T07:20:20;96174.19;;;22.65;87.01
39141;BME280;24875;48.436;10.298;2022-07-29T07:22:48;96174.25;;;22.48;82.95
39141;BME280;24875;48.436;10.298;2022-07-29T07:25:15;96170.53;;;22.49;85.46
39141;BME280;24875;48.436;10.298;2022-07-29T07:27:42;96176.69;;;22.50;83.61
39141;BME280;24875;48.436;10.298;2022-07-29T07:30:09;96173.16;;;22.44;90.35
39141;BME280;24875;48.436;10.298;2022-07-29T07:32:36;96166.28;;;22.53;90.88
39141;BME280;24875;48.436;10.298;2022-07-29T07:35:04;96170.59;;;22.59;86.80
39141;BME280;24875;48.436;10.298;2022-07-29T07:37:31;96164.97;;;22.34;85.83
39141;BME280;24875;48.436;10.298;2022-07-29T07:39:59;96171.38;;;22.55;84.93
39141;BME280;24875;48.436;10.298;2022-07-29T07:42:26;96178.66;;;22.59;86.36
39141;BME280;24875;48.436;10.298;2022-07-29T07:44:52;96172.56;;;22.21;87.98
39141;BME280;24875;48.436;10.298;2022-07-29T07:47:19;96178.13;;;22.57;91.73
39141;BME280;24875;48.436;10.298;2022-07-29T07:49:46;96177.97;;;22.68;87.59
39141;BME280;24875;48.436;10.298;2022-07-29T07:52:12;96174.94;;;22.60;88.18
39141;BME280;24875;48.436;10.298;2022-07-29T07:54:39;96178.81;;;22.48;85.78
39141;BME280;24875;48.436;10.298;2022-07-29T07:57:07;96172.41;;;22.27;87.94
39141;BME280;24875;48.436;10.298;2022-07-29T07:59:33;96173.34;;;22.38;88.56
39141;BME280;24875;48.436;10.298;2022-07-29T08:02:00;96177.50;;;22.07;88.98
39141;BME280;24875;48.436;10.298;2022-07-29T08:04:27;96174.38;;;22.15;88.92
39141;BME280;24875;48.436;10.298;2022-07-29T08:06:54;96180.81;;;21.93;89.93
39141;BME280;24875;48.436;10.298;2022-07-29T08:09:20;96178.22;;;21.82;88.49
39141;BME280;24875;48.436;10.298;2022-07-29T08:11:46;96176.56;;;21.97;86.50
39141;BME280;24875;48.436;10.298;2022-07-29T08:14:14;96175.28;;;22.04;89.23
39141;BME280;24875;48.436;10.298;2022-07-29T08:16:41;96174.94;;;21.96;87.32
39141;BME280;24875;48.436;10.298;2022-07-29T08:19:08;96173.44;;;22.05;87.46
39141;BME280;24875;48.436;10.298;2022-07-29T08:21:35;96171.84;;;21.88;86.40
39141;BME280;24875;48.436;10.298;2022-07-29T08:24:02;96175.13;;;21.90;86.94
39141;BME280;24875;48.436;10.298;2022-07-29T08:26:43;96180.31;;;21.96;87.47
39141;BME280;24875;48.436;10.298;2022-07-29T08:29:10;96181.38;;;22.16;87.27
39141;BME280;24875;48.436;10.298;2022-07-29T08:31:39;96182.31;;;22.69;84.62
39141;BME280;24875;48.436;10.298;2022-07-29T08:34:06;96176.72;;;22.76;84.26
39141;BME280;24875;48.436;10.298;2022-07-29T08:36:33;96177.94;;;22.64;85.73
39141;BME280;24875;48.436;10.298;2022-07-29T08:39:01;96177.47;;;22.98;88.41
39141;BME280;24875;48.436;10.298;2022-07-29T08:41:27;96173.88;;;23.14;82.87
39141;BME280;24875;48.436;10.298;2022-07-29T08:43:54;96171.84;;;23.26;82.66
39141;BME280;24875;48.436;10.298;2022-07-29T08:46:21;96164.22;;;23.18;83.13
39141;BME280;24875;48.436;10.298;2022-07-29T08:48:49;96169.53;;;23.08;84.68
39141;BME280;24875;48.436;10.298;2022-07-29T08:51:18;96170.94;;;23.51;82.36
39141;BME280;24875;48.436;10.298;2022-07-29T08:53:46;96173.38;;;23.17;84.04
39141;BME280;24875;48.436;10.298;2022-07-29T08:56:14;96173.47;;;23.31;83.88
39141;BME280;24875;48.436;10.298;2022-07-29T08:58:42;96170.03;;;23.36;82.74
39141;BME280;24875;48.436;10.298;2022-07-29T09:01:08;96171.47;;;23.85;86.33
39141;BME280;24875;48.436;10.298;2022-07-29T09:03:37;96177.16;;;23.88;82.31
39141;BME280;24875;48.436;10.298;2022-07-29T09:06:07;96179.06;;;23.97;83.73
39141;BME280;24875;48.436;10.298;2022-07-29T09:08:34;96182.19;;;23.80;80.87
39141;BME280;24875;48.436;10.298;2022-07-29T09:11:01;96179.88;;;23.98;81.19
39141;BME280;24875;48.436;10.298;2022-07-29T09:13:28;96181.34;;;23.69;80.68
39141;BME280;24875;48.436;10.298;2022-07-29T09:15:54;96189.34;;;24.05;79.61
39141;BME280;24875;48.436;10.298;2022-07-29T09:18:40;96186.53;;;24.37;82.35
39141;BME280;24875;48.436;10.298;2022-07-29T09:21:11;96182.31;;;24.51;83.49
39141;BME280;24875;48.436;10.298;2022-07-29T09:24:04;96182.34;;;24.56;79.03
39141;BME280;24875;48.436;10.298;2022-07-29T09:26:32;96185.91;;;24.76;81.03
39141;BME280;24875;48.436;10.298;2022-07-29T09:29:07;96187.66;;;24.41;79.10
39141;BME280;24875;48.436;10.298;2022-07-29T09:31:36;96180.66;;;24.40;81.08
39141;BME280;24875;48.436;10.298;2022-07-29T09:34:03;96175.34;;;24.64;79.81
39141;BME280;24875;48.436;10.298;2022-07-29T09:36:38;96180.59;;;25.16;81.11
39141;BME280;24875;48.436;10.298;2022-07-29T09:39:05;96180.81;;;24.94;80.13
39141;BME280;24875;48.436;10.298;2022-07-29T09:41:44;96177.34;;;25.68;77.09
39141;BME280;24875;48.436;10.298;2022-07-29T09:44:11;96177.38;;;25.38;73.63
39141;BME280;24875;48.436;10.298;2022-07-29T09:46:37;96173.28;;;25.61;74.78
39141;BME280;24875;48.436;10.298;2022-07-29T09:49:07;96169.25;;;25.68;76.54
39141;BME280;24875;48.436;10.298;2022-07-29T09:51:35;96180.88;;;25.74;76.65
39141;BME280;24875;48.436;10.298;2022-07-29T09:54:02;96175.44;;;25.88;74.73
39141;BME280;24875;48.436;10.298;2022-07-29T09:56:47;96177.00;;;26.14;74.74
39141;BME280;24875;48.436;10.298;2022-07-29T09:59:14;96171.38;;;25.96;69.28
39141;BME280;24875;48.436;10.298;2022-07-29T10:01:41;96169.41;;;26.21;70.68
39141;BME280;24875;48.436;10.298;2022-07-29T10:04:08;96178.06;;;26.18;69.68
39141;BME280;24875;48.436;10.298;2022-07-29T10:06:55;96174.63;;;26.71;68.68
39141;BME280;24875;48.436;10.298;2022-07-29T10:09:22;96176.44;;;26.22;66.51
39141;BME280;24875;48.436;10.298;2022-07-29T10:12:04;96161.22;;;26.46;66.65
39141;BME280;24875;48.436;10.298;2022-07-29T10:14:31;96165.69;;;26.07;68.15
39141;BME280;24875;48.436;10.298;2022-07-29T10:16:59;96159.69;;;26.20;69.92
39141;BME280;24875;48.436;10.298;2022-07-29T10:19:26;96152.16;;;26.17;70.57
39141;BME280;24875;48.436;10.298;2022-07-29T10:21:55;96163.41;;;26.49;70.07
39141;BME280;24875;48.436;10.298;2022-07-29T10:24:23;96169.00;;;26.62;69.19
39141;BME280;24875;48.436;10.298;2022-07-29T10:26:51;96166.13;;;26.92;66.12
39141;BME280;24875;48.436;10.298;2022-07-29T10:29:18;96162.38;;;27.26;68.18
39141;BME280;24875;48.436;10.298;2022-07-29T10:31:49;96156.69;;;26.90;66.31
39141;BME280;24875;48.436;10.298;2022-07-29T10:34:21;96144.84;;;27.57;68.09
39141;BME280;24875;48.436;10.298;2022-07-29T10:36:58;96155.84;;;27.66;64.69
39141;BME280;24875;48.436;10.298;2022-07-29T10:39:40;96148.47;;;27.99;63.51
39141;BME280;24875;48.436;10.298;2022-07-29T10:42:17;96154.09;;;27.79;61.84
39141;BME280;24875;48.436;10.298;2022-07-29T10:44:44;96149.22;;;27.48;61.77
39141;BME280;24875;48.436;10.298;2022-07-29T10:47:19;96133.75;;;28.05;62.21
39141;BME280;24875;48.436;10.298;2022-07-29T10:49:55;96133.13;;;27.90;62.91
39141;BME280;24875;48.436;10.298;2022-07-29T10:52:23;96126.22;;;28.02;61.44
39141;BME280;24875;48.436;10.298;2022-07-29T10:54:53;96134.94;;;27.71;60.36
39141;BME280;24875;48.436;10.298;2022-07-29T10:57:25;96123.44;;;27.22;61.32
39141;BME280;24875;48.436;10.298;2022-07-29T11:00:26;96122.47;;;27.42;61.52
39141;BME280;24875;48.436;10.298;2022-07-29T11:02:53;96118.97;;;27.41;62.88
39141;BME280;24875;48.436;10.298;2022-07-29T11:05:21;96127.13;;;27.36;64.69
39141;BME280;24875;48.436;10.298;2022-07-29T11:08:24;96137.84;;;27.79;61.59
39141;BME280;24875;48.436;10.298;2022-07-29T11:10:53;96137.81;;;27.23;63.14
39141;BME280;24875;48.436;10.298;2022-07-29T11:13:48;96130.13;;;26.53;65.06
39141;BME280;24875;48.436;10.298;2022-07-29T11:16:16;96141.31;;;26.22;63.75
39141;BME280;24875;48.436;10.298;2022-07-29T11:19:20;96131.78;;;26.44;64.11
39141;BME280;24875;48.436;10.298;2022-07-29T11:21:47;96133.06;;;26.62;67.26
39141;BME280;24875;48.436;10.298;2022-07-29T11:24:16;96129.94;;;26.35;65.02
39141;BME280;24875;48.436;10.298;2022-07-29T11:26:43;96128.72;;;26.61;62.25
39141;BME280;24875;48.436;10.298;2022-07-29T11:29:19;96135.97;;;27.13;61.16
39141;BME280;24875;48.436;10.298;2022-07-29T11:31:49;96130.88;;;26.59;61.43
39141;BME280;24875;48.436;10.298;2022-07-29T11:34:21;96134.63;;;26.68;62.54
39141;BME280;24875;48.436;10.298;2022-07-29T11:37:19;96130.97;;;27.30;64.97
39141;BME280;24875;48.436;10.298;2022-07-29T11:39:49;96129.47;;;27.14;60.89
39141;BME280;24875;48.436;10.298;2022-07-29T11:42:41;96129.16;;;27.49;63.27
39141;BME280;24875;48.436;10.298;2022-07-29T11:45:12;96140.00;;;27.49;58.94
39141;BME280;24875;48.436;10.298;2022-07-29T11:47:41;96143.47;;;27.60;56.81
39141;BME280;24875;48.436;10.298;2022-07-29T11:50:12;96153.75;;;27.24;60.05
39141;BME280;24875;48.436;10.298;2022-07-29T11:52:40;96146.44;;;26.82;58.30
39141;BME280;24875;48.436;10.298;2022-07-29T11:55:12;96156.13;;;26.93;59.66
39141;BME280;24875;48.436;10.298;2022-07-29T11:57:46;96149.06;;;27.02;60.08
39141;BME280;24875;48.436;10.298;2022-07-29T12:00:22;96134.53;;;26.83;57.43
39141;BME280;24875;48.436;10.298;2022-07-29T12:02:48;96132.13;;;26.81;56.80
39141;BME280;24875;48.436;10.298;2022-07-29T12:05:16;96131.41;;;26.66;58.65
39141;BME280;24875;48.436;10.298;2022-07-29T12:07:43;96124.44;;;26.50;55.57
39141;BME280;24875;48.436;10.298;2022-07-29T12:10:09;96129.88;;;26.45;53.79
39141;BME280;24875;48.436;10.298;2022-07-29T12:12:36;96126.09;;;26.46;54.96
39141;BME280;24875;48.436;10.298;2022-07-29T12:15:15;96121.03;;;26.78;54.76
39141;BME280;24875;48.436;10.298;2022-07-29T12:17:45;96112.56;;;26.46;55.02
39141;BME280;24875;48.436;10.298;2022-07-29T12:20:12;96112.03;;;26.49;55.31
39141;BME280;24875;48.436;10.298;2022-07-29T12:22:41;96118.50;;;26.53;58.02
39141;BME280;24875;48.436;10.298;2022-07-29T12:25:10;96124.97;;;26.57;53.28
39141;BME280;24875;48.436;10.298;2022-07-29T12:27:39;96124.94;;;26.62;54.40
39141;BME280;24875;48.436;10.298;2022-07-29T12:30:08;96138.16;;;26.68;52.85
39141;BME280;24875;48.436;10.298;2022-07-29T12:32:37;96136.38;;;26.44;53.92
39141;BME280;24875;48.436;10.298;2022-07-29T12:35:06;96137.88;;;26.65;55.52
39141;BME280;24875;48.436;10.298;2022-07-29T12:37:33;96131.38;;;26.71;53.79
39141;BME280;24875;48.436;10.298;2022-07-29T12:40:00;96128.75;;;26.56;53.87
39141;BME280;24875;48.436;10.298;2022-07-29T12:42:27;96123.72;;;26.83;53.46
39141;BME280;24875;48.436;10.298;2022-07-29T12:44:53;96128.38;;;27.15;54.15
39141;BME280;24875;48.436;10.298;2022-07-29T12:47:20;96120.78;;;27.17;52.50
39141;BME280;24875;48.436;10.298;2022-07-29T12:49:49;96134.47;;;26.98;52.41
39141;BME280;24875;48.436;10.298;2022-07-29T12:52:26;96124.63;;;27.11;52.50
39141;BME280;24875;48.436;10.298;2022-07-29T12:54:54;96129.91;;;27.26;51.62
39141;BME280;24875;48.436;10.298;2022-07-29T12:57:21;96134.69;;;27.39;52.77
39141;BME280;24875;48.436;10.298;2022-07-29T13:00:05;96135.03;;;28.13;49.33